sensor_id;sensor_type;location;lat;lon;timestamp;P1;durP1;ratioP1;P2;durP2;ratioP2
20972;SDS011;10645;52.370;13.314;2022-10-17T00:00:00;1.63;;;1.52;;
20972;SDS011;10645;52.370;13.314;2022-10-17T00:02:26;1.52;;;1.25;;
20972;SDS011;10645;52.370;13.314;2022-10-17T00:04:52;2.80;;;1.30;;
20972;SDS011;10645;52.370;13.314;2022-10-17T00:07:18;0.70;;;0.70;;
20972;SDS011;10645;52.370;13.314;2022-10-17T00:09:45;0.70;;;0.70;;
20972;SDS011;10645;52.370;13.314;2022-10-17T00:12:11;0.80;;;0.80;;
20972;SDS011;10645;52.370;13.314;2022-10-17T00:14:37;1.88;;;0.95;;
20972;SDS011;10645;52.370;13.314;2022-10-17T00:17:03;2.42;;;0.95;;
20972;SDS011;10645;52.370;13.314;2022-10-17T00:19:30;1.38;;;0.88;;
20972;SDS011;10645;52.370;13.314;2022-10-17T00:21:56;1.35;;;1.17;;
20972;SDS011;10645;52.370;13.314;2022-10-17T00:24:22;2.63;;;1.50;;
20972;SDS011;10645;52.370;13.314;2022-10-17T00:26:48;1.05;;;1.02;;
20972;SDS011;10645;52.370;13.314;2022-10-17T00:29:14;1.52;;;1.42;;
20972;SDS011;10645;52.370;13.314;2022-10-17T00:31:40;2.85;;;0.98;;
20972;SDS011;10645;52.370;13.314;2022-10-17T00:34:06;2.30;;;2.10;;
20972;SDS011;10645;52.370;13.314;2022-10-17T00:36:32;1.15;;;1.02;;
20972;SDS011;10645;52.370;13.314;2022-10-17T00:38:59;1.40;;;1.02;;
20972;SDS011;10645;52.370;13.314;2022-10-17T00:41:27;1.08;;;0.90;;
20972;SDS011;10645;52.370;13.314;2022-10-17T00:44:01;1.30;;;1.20;;
20972;SDS011;10645;52.370;13.314;2022-10-17T00:46:36;1.08;;;0.98;;
20972;SDS011;10645;52.370;13.314;2022-10-17T00:49:07;1.65;;;1.52;;
20972;SDS011;10645;52.370;13.314;2022-10-17T00:51:45;1.30;;;1.20;;
20972;SDS011;10645;52.370;13.314;2022-10-17T00:54:16;1.33;;;1.23;;
20972;SDS011;10645;52.370;13.314;2022-10-17T00:56:45;1.55;;;1.45;;
20972;SDS011;10645;52.370;13.314;2022-10-17T00:59:12;1.65;;;1.20;;
20972;SDS011;10645;52.370;13.314;2022-10-17T01:01:40;1.70;;;1.00;;
20972;SDS011;10645;52.370;13.314;2022-10-17T01:04:07;1.38;;;0.93;;
20972;SDS011;10645;52.370;13.314;2022-10-17T01:06:33;2.03;;;1.27;;
20972;SDS011;10645;52.370;13.314;2022-10-17T01:09:00;1.38;;;1.27;;
20972;SDS011;10645;52.370;13.314;2022-10-17T01:17:28;1.60;;;1.17;;
20972;SDS011;10645;52.370;13.314;2022-10-17T01:20:30;1.40;;;1.38;;
20972;SDS011;10645;52.370;13.314;2022-10-17T01:26:18;1.45;;;1.40;;
20972;SDS011;10645;52.370;13.314;2022-10-17T01:31:52;1.35;;;1.30;;
20972;SDS011;10645;52.370;13.314;2022-10-17T01:42:11;2.55;;;2.35;;
20972;SDS011;10645;52.370;13.314;2022-10-17T01:44:52;2.80;;;2.55;;
20972;SDS011;10645;52.370;13.314;2022-10-17T01:47:27;3.50;;;1.88;;
20972;SDS011;10645;52.370;13.314;2022-10-17T01:49:57;3.22;;;1.88;;
20972;SDS011;10645;52.370;13.314;2022-10-17T01:52:33;1.70;;;1.50;;
20972;SDS011;10645;52.370;13.314;2022-10-17T01:55:08;1.67;;;1.58;;
20972;SDS011;10645;52.370;13.314;2022-10-17T01:57:40;2.30;;;1.52;;
20972;SDS011;10645;52.370;13.314;2022-10-17T02:00:12;1.98;;;1.85;;
20972;SDS011;10645;52.370;13.314;2022-10-17T02:02:42;1.67;;;1.58;;
20972;SDS011;10645;52.370;13.314;2022-10-17T02:05:11;1.58;;;1.52;;
20972;SDS011;10645;52.370;13.314;2022-10-17T02:07:42;2.13;;;1.48;;
20972;SDS011;10645;52.370;13.314;2022-10-17T02:10:09;1.92;;;1.83;;
20972;SDS011;10645;52.370;13.314;2022-10-17T02:21:07;1.63;;;1.52;;
20972;SDS011;10645;52.370;13.314;2022-10-17T02:23:44;2.08;;;1.98;;
20972;SDS011;10645;52.370;13.314;2022-10-17T02:26:34;2.05;;;1.85;;
20972;SDS011;10645;52.370;13.314;2022-10-17T02:29:30;2.08;;;1.40;;
20972;SDS011;10645;52.370;13.314;2022-10-17T02:32:07;1.83;;;1.67;;
20972;SDS011;10645;52.370;13.314;2022-10-17T02:35:00;1.27;;;1.17;;
20972;SDS011;10645;52.370;13.314;2022-10-17T02:37:29;2.20;;;1.67;;
20972;SDS011;10645;52.370;13.314;2022-10-17T02:39:58;2.15;;;1.95;;
20972;SDS011;10645;52.370;13.314;2022-10-17T02:42:26;1.38;;;1.20;;
20972;SDS011;10645;52.370;13.314;2022-10-17T02:44:56;1.75;;;1.60;;
20972;SDS011;10645;52.370;13.314;2022-10-17T02:47:26;1.95;;;1.85;;
20972;SDS011;10645;52.370;13.314;2022-10-17T02:49:58;1.38;;;1.27;;
20972;SDS011;10645;52.370;13.314;2022-10-17T02:52:26;2.25;;;1.88;;
20972;SDS011;10645;52.370;13.314;2022-10-17T02:55:16;2.95;;;2.28;;
20972;SDS011;10645;52.370;13.314;2022-10-17T02:57:49;2.42;;;2.22;;
20972;SDS011;10645;52.370;13.314;2022-10-17T03:00:19;3.33;;;2.30;;
20972;SDS011;10645;52.370;13.314;2022-10-17T03:02:47;2.38;;;2.17;;
20972;SDS011;10645;52.370;13.314;2022-10-17T03:05:19;2.13;;;1.88;;
20972;SDS011;10645;52.370;13.314;2022-10-17T03:07:47;2.25;;;2.15;;
20972;SDS011;10645;52.370;13.314;2022-10-17T03:10:13;2.17;;;2.00;;
20972;SDS011;10645;52.370;13.314;2022-10-17T03:12:39;3.05;;;2.75;;
20972;SDS011;10645;52.370;13.314;2022-10-17T03:15:07;2.13;;;1.92;;
20972;SDS011;10645;52.370;13.314;2022-10-17T03:17:34;2.70;;;2.40;;
20972;SDS011;10645;52.370;13.314;2022-10-17T03:20:00;2.60;;;2.28;;
20972;SDS011;10645;52.370;13.314;2022-10-17T03:22:28;2.58;;;1.65;;
20972;SDS011;10645;52.370;13.314;2022-10-17T03:24:57;2.22;;;1.83;;
20972;SDS011;10645;52.370;13.314;2022-10-17T03:27:23;3.65;;;2.63;;
20972;SDS011;10645;52.370;13.314;2022-10-17T03:29:49;2.30;;;2.10;;
20972;SDS011;10645;52.370;13.314;2022-10-17T03:32:15;2.83;;;2.55;;
20972;SDS011;10645;52.370;13.314;2022-10-17T03:34:42;2.65;;;2.45;;
20972;SDS011;10645;52.370;13.314;2022-10-17T03:37:08;2.58;;;2.45;;
20972;SDS011;10645;52.370;13.314;2022-10-17T03:39:37;1.40;;;1.38;;
20972;SDS011;10645;52.370;13.314;2022-10-17T03:42:03;1.80;;;1.70;;
20972;SDS011;10645;52.370;13.314;2022-10-17T03:44:29;1.20;;;1.13;;
20972;SDS011;10645;52.370;13.314;2022-10-17T03:46:55;1.35;;;1.35;;
20972;SDS011;10645;52.370;13.314;2022-10-17T03:49:22;34.00;;;23.70;;
20972;SDS011;10645;52.370;13.314;2022-10-17T03:51:48;27.85;;;20.35;;
20972;SDS011;10645;52.370;13.314;2022-10-17T03:54:16;28.48;;;19.17;;
20972;SDS011;10645;52.370;13.314;2022-10-17T03:56:42;8.40;;;6.90;;
20972;SDS011;10645;52.370;13.314;2022-10-17T03:59:12;5.63;;;3.28;;
20972;SDS011;10645;52.370;13.314;2022-10-17T04:01:40;3.70;;;2.55;;
20972;SDS011;10645;52.370;13.314;2022-10-17T04:04:07;1.05;;;1.05;;
20972;SDS011;10645;52.370;13.314;2022-10-17T04:06:35;1.48;;;1.35;;
20972;SDS011;10645;52.370;13.314;2022-10-17T04:09:02;1.15;;;1.13;;
20972;SDS011;10645;52.370;13.314;2022-10-17T04:11:36;2.35;;;2.15;;
20972;SDS011;10645;52.370;13.314;2022-10-17T04:14:02;3.03;;;2.75;;
20972;SDS011;10645;52.370;13.314;2022-10-17T04:16:29;1.65;;;1.45;;
20972;SDS011;10645;52.370;13.314;2022-10-17T04:18:59;2.28;;;2.03;;
20972;SDS011;10645;52.370;13.314;2022-10-17T04:21:29;1.65;;;1.55;;
20972;SDS011;10645;52.370;13.314;2022-10-17T04:23:59;1.58;;;1.48;;
20972;SDS011;10645;52.370;13.314;2022-10-17T04:26:48;2.40;;;2.20;;
20972;SDS011;10645;52.370;13.314;2022-10-17T04:29:15;2.45;;;2.25;;
20972;SDS011;10645;52.370;13.314;2022-10-17T04:31:44;0.98;;;0.98;;
20972;SDS011;10645;52.370;13.314;2022-10-17T04:34:20;2.90;;;1.95;;
20972;SDS011;10645;52.370;13.314;2022-10-17T04:36:46;2.42;;;1.95;;
20972;SDS011;10645;52.370;13.314;2022-10-17T04:39:12;2.35;;;2.03;;
20972;SDS011;10645;52.370;13.314;2022-10-17T04:41:39;2.00;;;1.90;;
20972;SDS011;10645;52.370;13.314;2022-10-17T04:44:06;1.55;;;1.30;;
20972;SDS011;10645;52.370;13.314;2022-10-17T04:46:36;2.17;;;1.73;;
20972;SDS011;10645;52.370;13.314;2022-10-17T04:49:02;2.80;;;1.70;;
20972;SDS011;10645;52.370;13.314;2022-10-17T04:51:29;0.95;;;0.93;;
20972;SDS011;10645;52.370;13.314;2022-10-17T04:54:14;2.35;;;2.03;;
20972;SDS011;10645;52.370;13.314;2022-10-17T04:56:42;2.15;;;1.95;;
20972;SDS011;10645;52.370;13.314;2022-10-17T04:59:09;1.55;;;1.45;;
20972;SDS011;10645;52.370;13.314;2022-10-17T05:01:37;2.35;;;2.17;;
20972;SDS011;10645;52.370;13.314;2022-10-17T05:04:03;2.53;;;2.25;;
20972;SDS011;10645;52.370;13.314;2022-10-17T05:06:29;1.48;;;1.38;;
20972;SDS011;10645;52.370;13.314;2022-10-17T05:09:35;1.92;;;1.35;;
20972;SDS011;10645;52.370;13.314;2022-10-17T05:12:01;3.10;;;1.33;;
20972;SDS011;10645;52.370;13.314;2022-10-17T05:14:29;3.38;;;2.05;;
20972;SDS011;10645;52.370;13.314;2022-10-17T05:16:55;1.42;;;1.33;;
20972;SDS011;10645;52.370;13.314;2022-10-17T05:19:21;1.58;;;1.40;;
20972;SDS011;10645;52.370;13.314;2022-10-17T05:21:49;1.83;;;1.73;;
20972;SDS011;10645;52.370;13.314;2022-10-17T05:24:15;3.35;;;2.58;;
20972;SDS011;10645;52.370;13.314;2022-10-17T05:26:41;1.80;;;1.70;;
20972;SDS011;10645;52.370;13.314;2022-10-17T05:29:08;1.08;;;1.05;;
20972;SDS011;10645;52.370;13.314;2022-10-17T05:31:39;2.60;;;2.38;;
20972;SDS011;10645;52.370;13.314;2022-10-17T05:34:06;2.38;;;1.90;;
20972;SDS011;10645;52.370;13.314;2022-10-17T05:36:33;1.38;;;1.20;;
20972;SDS011;10645;52.370;13.314;2022-10-17T05:39:01;3.55;;;2.28;;
20972;SDS011;10645;52.370;13.314;2022-10-17T05:41:28;2.05;;;1.85;;
20972;SDS011;10645;52.370;13.314;2022-10-17T05:43:54;2.10;;;2.00;;
20972;SDS011;10645;52.370;13.314;2022-10-17T05:46:31;1.75;;;1.65;;
20972;SDS011;10645;52.370;13.314;2022-10-17T05:48:58;2.97;;;2.20;;
20972;SDS011;10645;52.370;13.314;2022-10-17T05:51:24;1.30;;;1.20;;
20972;SDS011;10645;52.370;13.314;2022-10-17T05:53:51;2.05;;;1.67;;
20972;SDS011;10645;52.370;13.314;2022-10-17T05:56:22;2.83;;;2.17;;
20972;SDS011;10645;52.370;13.314;2022-10-17T05:58:49;2.20;;;1.92;;
20972;SDS011;10645;52.370;13.314;2022-10-17T06:01:26;2.55;;;2.35;;
20972;SDS011;10645;52.370;13.314;2022-10-17T06:03:52;2.55;;;2.35;;
20972;SDS011;10645;52.370;13.314;2022-10-17T06:06:18;1.98;;;1.77;;
20972;SDS011;10645;52.370;13.314;2022-10-17T06:08:45;12.23;;;2.72;;
20972;SDS011;10645;52.370;13.314;2022-10-17T06:11:15;1.88;;;1.77;;
20972;SDS011;10645;52.370;13.314;2022-10-17T06:13:42;1.88;;;1.73;;
20972;SDS011;10645;52.370;13.314;2022-10-17T06:16:16;1.75;;;1.65;;
20972;SDS011;10645;52.370;13.314;2022-10-17T06:18:43;3.83;;;2.15;;
20972;SDS011;10645;52.370;13.314;2022-10-17T06:21:10;2.88;;;1.92;;
20972;SDS011;10645;52.370;13.314;2022-10-17T06:23:43;1.98;;;1.88;;
20972;SDS011;10645;52.370;13.314;2022-10-17T06:26:22;1.90;;;1.80;;
20972;SDS011;10645;52.370;13.314;2022-10-17T06:28:48;1.52;;;1.42;;
20972;SDS011;10645;52.370;13.314;2022-10-17T06:31:15;1.50;;;1.40;;
20972;SDS011;10645;52.370;13.314;2022-10-17T06:33:41;2.20;;;1.60;;
20972;SDS011;10645;52.370;13.314;2022-10-17T06:36:09;2.15;;;1.95;;
20972;SDS011;10645;52.370;13.314;2022-10-17T06:38:38;2.75;;;2.47;;
20972;SDS011;10645;52.370;13.314;2022-10-17T06:41:10;1.30;;;1.27;;
20972;SDS011;10645;52.370;13.314;2022-10-17T06:43:39;5.05;;;1.83;;
20972;SDS011;10645;52.370;13.314;2022-10-17T06:46:26;2.53;;;2.40;;
20972;SDS011;10645;52.370;13.314;2022-10-17T06:49:02;2.58;;;2.47;;
20972;SDS011;10645;52.370;13.314;2022-10-17T06:51:46;1.73;;;1.58;;
20972;SDS011;10645;52.370;13.314;2022-10-17T06:54:14;1.27;;;1.20;;
20972;SDS011;10645;52.370;13.314;2022-10-17T06:56:47;2.60;;;2.05;;
20972;SDS011;10645;52.370;13.314;2022-10-17T06:59:31;1.90;;;1.80;;
20972;SDS011;10645;52.370;13.314;2022-10-17T07:02:02;2.05;;;1.95;;
20972;SDS011;10645;52.370;13.314;2022-10-17T07:04:29;1.85;;;1.50;;
20972;SDS011;10645;52.370;13.314;2022-10-17T07:06:56;2.47;;;2.05;;
20972;SDS011;10645;52.370;13.314;2022-10-17T07:09:25;5.57;;;2.45;;
20972;SDS011;10645;52.370;13.314;2022-10-17T07:11:52;3.53;;;2.45;;
20972;SDS011;10645;52.370;13.314;2022-10-17T07:14:18;3.65;;;2.50;;
20972;SDS011;10645;52.370;13.314;2022-10-17T07:16:45;2.63;;;2.42;;
20972;SDS011;10645;52.370;13.314;2022-10-17T07:19:17;3.53;;;2.22;;
20972;SDS011;10645;52.370;13.314;2022-10-17T07:21:43;2.55;;;2.28;;
20972;SDS011;10645;52.370;13.314;2022-10-17T07:24:10;1.85;;;1.73;;
20972;SDS011;10645;52.370;13.314;2022-10-17T07:26:38;3.40;;;3.20;;
20972;SDS011;10645;52.370;13.314;2022-10-17T07:29:05;2.65;;;2.45;;
20972;SDS011;10645;52.370;13.314;2022-10-17T07:31:36;2.90;;;2.03;;
20972;SDS011;10645;52.370;13.314;2022-10-17T07:34:02;2.85;;;1.95;;
20972;SDS011;10645;52.370;13.314;2022-10-17T07:36:29;2.10;;;1.90;;
20972;SDS011;10645;52.370;13.314;2022-10-17T07:38:56;1.80;;;1.65;;
20972;SDS011;10645;52.370;13.314;2022-10-17T07:41:24;2.85;;;1.83;;
20972;SDS011;10645;52.370;13.314;2022-10-17T07:43:50;2.78;;;2.47;;
20972;SDS011;10645;52.370;13.314;2022-10-17T07:46:20;2.25;;;2.05;;
20972;SDS011;10645;52.370;13.314;2022-10-17T07:48:46;2.22;;;1.50;;
20972;SDS011;10645;52.370;13.314;2022-10-17T07:51:12;1.90;;;1.75;;
20972;SDS011;10645;52.370;13.314;2022-10-17T07:53:39;2.13;;;1.85;;
20972;SDS011;10645;52.370;13.314;2022-10-17T07:56:05;1.38;;;1.25;;
20972;SDS011;10645;52.370;13.314;2022-10-17T07:58:33;1.98;;;1.80;;
20972;SDS011;10645;52.370;13.314;2022-10-17T08:01:03;2.10;;;1.90;;
20972;SDS011;10645;52.370;13.314;2022-10-17T08:03:31;1.85;;;0.98;;
20972;SDS011;10645;52.370;13.314;2022-10-17T08:06:00;1.50;;;1.40;;
20972;SDS011;10645;52.370;13.314;2022-10-17T08:08:27;2.25;;;1.67;;
20972;SDS011;10645;52.370;13.314;2022-10-17T08:10:54;1.83;;;1.73;;
20972;SDS011;10645;52.370;13.314;2022-10-17T08:13:21;1.00;;;1.00;;
20972;SDS011;10645;52.370;13.314;2022-10-17T08:15:47;2.40;;;2.28;;
20972;SDS011;10645;52.370;13.314;2022-10-17T08:18:14;2.15;;;1.88;;
20972;SDS011;10645;52.370;13.314;2022-10-17T08:20:40;1.83;;;1.48;;
20972;SDS011;10645;52.370;13.314;2022-10-17T08:23:06;2.45;;;2.22;;
20972;SDS011;10645;52.370;13.314;2022-10-17T08:25:33;1.65;;;1.55;;
20972;SDS011;10645;52.370;13.314;2022-10-17T08:27:59;1.30;;;1.20;;
20972;SDS011;10645;52.370;13.314;2022-10-17T08:30:25;1.45;;;1.35;;
20972;SDS011;10645;52.370;13.314;2022-10-17T08:32:51;1.40;;;1.15;;
20972;SDS011;10645;52.370;13.314;2022-10-17T08:35:17;2.60;;;1.65;;
20972;SDS011;10645;52.370;13.314;2022-10-17T08:37:43;1.50;;;1.40;;
20972;SDS011;10645;52.370;13.314;2022-10-17T08:40:30;1.05;;;1.02;;
20972;SDS011;10645;52.370;13.314;2022-10-17T08:48:17;1.65;;;1.55;;
20972;SDS011;10645;52.370;13.314;2022-10-17T08:50:49;2.17;;;1.98;;
20972;SDS011;10645;52.370;13.314;2022-10-17T08:53:32;4.28;;;1.48;;
20972;SDS011;10645;52.370;13.314;2022-10-17T08:56:04;1.23;;;1.13;;
20972;SDS011;10645;52.370;13.314;2022-10-17T08:58:38;1.13;;;1.13;;
20972;SDS011;10645;52.370;13.314;2022-10-17T09:04:22;3.38;;;1.85;;
20972;SDS011;10645;52.370;13.314;2022-10-17T09:09:36;1.95;;;1.45;;
20972;SDS011;10645;52.370;13.314;2022-10-17T09:12:19;1.58;;;1.42;;
20972;SDS011;10645;52.370;13.314;2022-10-17T09:18:22;1.27;;;1.10;;
20972;SDS011;10645;52.370;13.314;2022-10-17T09:20:55;1.30;;;1.20;;
20972;SDS011;10645;52.370;13.314;2022-10-17T09:23:36;1.80;;;1.35;;
20972;SDS011;10645;52.370;13.314;2022-10-17T09:26:25;2.03;;;1.83;;
20972;SDS011;10645;52.370;13.314;2022-10-17T09:28:52;1.38;;;1.30;;
20972;SDS011;10645;52.370;13.314;2022-10-17T09:31:32;1.77;;;1.08;;
20972;SDS011;10645;52.370;13.314;2022-10-17T09:34:07;2.65;;;1.65;;
20972;SDS011;10645;52.370;13.314;2022-10-17T09:36:36;2.13;;;1.90;;
20972;SDS011;10645;52.370;13.314;2022-10-17T09:39:05;2.17;;;1.30;;
20972;SDS011;10645;52.370;13.314;2022-10-17T09:41:41;3.25;;;1.38;;
20972;SDS011;10645;52.370;13.314;2022-10-17T09:44:12;1.45;;;1.35;;
20972;SDS011;10645;52.370;13.314;2022-10-17T09:46:52;2.10;;;1.60;;
20972;SDS011;10645;52.370;13.314;2022-10-17T09:49:35;1.48;;;1.38;;
20972;SDS011;10645;52.370;13.314;2022-10-17T09:52:04;1.48;;;1.38;;
20972;SDS011;10645;52.370;13.314;2022-10-17T09:54:45;1.13;;;0.93;;
20972;SDS011;10645;52.370;13.314;2022-10-17T09:57:13;1.00;;;1.00;;
20972;SDS011;10645;52.370;13.314;2022-10-17T09:59:47;1.67;;;1.58;;
20972;SDS011;10645;52.370;13.314;2022-10-17T10:02:21;1.45;;;1.35;;
20972;SDS011;10645;52.370;13.314;2022-10-17T10:04:52;1.85;;;1.73;;
20972;SDS011;10645;52.370;13.314;2022-10-17T10:07:22;1.80;;;1.23;;
20972;SDS011;10645;52.370;13.314;2022-10-17T10:09:50;1.52;;;1.42;;
20972;SDS011;10645;52.370;13.314;2022-10-17T10:12:21;1.80;;;1.70;;
20972;SDS011;10645;52.370;13.314;2022-10-17T10:14:48;2.35;;;1.75;;
20972;SDS011;10645;52.370;13.314;2022-10-17T10:17:37;2.20;;;1.42;;
20972;SDS011;10645;52.370;13.314;2022-10-17T10:20:23;1.60;;;1.50;;
20972;SDS011;10645;52.370;13.314;2022-10-17T10:23:04;1.50;;;1.25;;
20972;SDS011;10645;52.370;13.314;2022-10-17T10:25:32;2.03;;;1.90;;
20972;SDS011;10645;52.370;13.314;2022-10-17T10:27:59;1.77;;;1.67;;
20972;SDS011;10645;52.370;13.314;2022-10-17T10:30:27;1.58;;;1.48;;
20972;SDS011;10645;52.370;13.314;2022-10-17T10:32:55;1.92;;;1.65;;
20972;SDS011;10645;52.370;13.314;2022-10-17T10:35:30;1.20;;;1.10;;
20972;SDS011;10645;52.370;13.314;2022-10-17T10:37:58;1.45;;;1.20;;
20972;SDS011;10645;52.370;13.314;2022-10-17T10:40:30;1.27;;;1.17;;
20972;SDS011;10645;52.370;13.314;2022-10-17T10:43:02;1.80;;;1.70;;
20972;SDS011;10645;52.370;13.314;2022-10-17T10:48:04;6.03;;;1.52;;
20972;SDS011;10645;52.370;13.314;2022-10-17T10:56:05;1.27;;;1.17;;
20972;SDS011;10645;52.370;13.314;2022-10-17T11:01:20;2.20;;;2.00;;
20972;SDS011;10645;52.370;13.314;2022-10-17T11:06:43;1.13;;;1.02;;
20972;SDS011;10645;52.370;13.314;2022-10-17T11:11:57;0.75;;;0.75;;
20972;SDS011;10645;52.370;13.314;2022-10-17T11:14:39;1.10;;;1.10;;
20972;SDS011;10645;52.370;13.314;2022-10-17T11:17:20;1.15;;;1.10;;
20972;SDS011;10645;52.370;13.314;2022-10-17T11:20:06;1.30;;;1.10;;
20972;SDS011;10645;52.370;13.314;2022-10-17T11:22:41;1.63;;;1.52;;
20972;SDS011;10645;52.370;13.314;2022-10-17T11:27:37;1.92;;;1.08;;
20972;SDS011;10645;52.370;13.314;2022-10-17T11:30:03;0.98;;;0.98;;
20972;SDS011;10645;52.370;13.314;2022-10-17T11:32:37;1.55;;;0.95;;
20972;SDS011;10645;52.370;13.314;2022-10-17T11:35:15;1.58;;;1.13;;
20972;SDS011;10645;52.370;13.314;2022-10-17T11:37:46;1.83;;;1.73;;
20972;SDS011;10645;52.370;13.314;2022-10-17T11:40:19;1.30;;;1.10;;
20972;SDS011;10645;52.370;13.314;2022-10-17T11:42:53;1.58;;;1.48;;
20972;SDS011;10645;52.370;13.314;2022-10-17T11:45:46;1.63;;;1.42;;
20972;SDS011;10645;52.370;13.314;2022-10-17T11:48:27;1.77;;;1.40;;
20972;SDS011;10645;52.370;13.314;2022-10-17T11:51:04;1.77;;;1.65;;
20972;SDS011;10645;52.370;13.314;2022-10-17T11:56:26;0.95;;;0.95;;
20972;SDS011;10645;52.370;13.314;2022-10-17T11:59:24;1.25;;;0.77;;
20972;SDS011;10645;52.370;13.314;2022-10-17T12:02:11;2.72;;;1.52;;
20972;SDS011;10645;52.370;13.314;2022-10-17T12:04:58;1.38;;;1.05;;
20972;SDS011;10645;52.370;13.314;2022-10-17T12:07:41;1.30;;;0.88;;
20972;SDS011;10645;52.370;13.314;2022-10-17T12:10:21;2.50;;;1.15;;
20972;SDS011;10645;52.370;13.314;2022-10-17T12:12:48;1.50;;;1.40;;
20972;SDS011;10645;52.370;13.314;2022-10-17T12:18:01;1.20;;;1.20;;
20972;SDS011;10645;52.370;13.314;2022-10-17T12:20:29;1.83;;;0.80;;
20972;SDS011;10645;52.370;13.314;2022-10-17T12:23:02;13.38;;;2.00;;
20972;SDS011;10645;52.370;13.314;2022-10-17T12:25:47;1.42;;;1.33;;
20972;SDS011;10645;52.370;13.314;2022-10-17T12:28:20;1.60;;;1.50;;
20972;SDS011;10645;52.370;13.314;2022-10-17T12:31:01;1.85;;;1.40;;
20972;SDS011;10645;52.370;13.314;2022-10-17T12:49:45;2.13;;;1.92;;
20972;SDS011;10645;52.370;13.314;2022-10-17T12:54:57;1.70;;;1.58;;
20972;SDS011;10645;52.370;13.314;2022-10-17T13:00:16;1.35;;;0.95;;
20972;SDS011;10645;52.370;13.314;2022-10-17T13:03:15;1.88;;;1.40;;
20972;SDS011;10645;52.370;13.314;2022-10-17T13:05:46;5.80;;;2.05;;
20972;SDS011;10645;52.370;13.314;2022-10-17T13:08:17;1.33;;;1.10;;
20972;SDS011;10645;52.370;13.314;2022-10-17T13:10:47;1.05;;;0.95;;
20972;SDS011;10645;52.370;13.314;2022-10-17T13:13:17;1.02;;;1.02;;
20972;SDS011;10645;52.370;13.314;2022-10-17T13:15:58;1.50;;;1.40;;
20972;SDS011;10645;52.370;13.314;2022-10-17T13:18:26;1.52;;;1.08;;
20972;SDS011;10645;52.370;13.314;2022-10-17T13:20:54;1.65;;;1.45;;
20972;SDS011;10645;52.370;13.314;2022-10-17T13:23:22;0.63;;;0.63;;
20972;SDS011;10645;52.370;13.314;2022-10-17T13:28:31;1.52;;;1.42;;
20972;SDS011;10645;52.370;13.314;2022-10-17T13:30:57;1.65;;;1.20;;
20972;SDS011;10645;52.370;13.314;2022-10-17T13:33:27;1.45;;;1.35;;
20972;SDS011;10645;52.370;13.314;2022-10-17T13:36:00;1.08;;;0.93;;
20972;SDS011;10645;52.370;13.314;2022-10-17T13:38:29;1.15;;;0.98;;
20972;SDS011;10645;52.370;13.314;2022-10-17T13:40:57;1.38;;;1.02;;
20972;SDS011;10645;52.370;13.314;2022-10-17T13:43:23;0.70;;;0.70;;
20972;SDS011;10645;52.370;13.314;2022-10-17T13:45:54;1.08;;;0.77;;
20972;SDS011;10645;52.370;13.314;2022-10-17T13:48:26;2.60;;;1.35;;
20972;SDS011;10645;52.370;13.314;2022-10-17T13:50:55;1.17;;;1.08;;
20972;SDS011;10645;52.370;13.314;2022-10-17T13:58:24;1.50;;;1.40;;
20972;SDS011;10645;52.370;13.314;2022-10-17T14:00:52;7.40;;;1.67;;
20972;SDS011;10645;52.370;13.314;2022-10-17T14:03:19;1.08;;;1.08;;
20972;SDS011;10645;52.370;13.314;2022-10-17T14:06:04;1.33;;;1.17;;
20972;SDS011;10645;52.370;13.314;2022-10-17T14:08:45;1.30;;;1.10;;
20972;SDS011;10645;52.370;13.314;2022-10-17T14:11:20;1.40;;;1.30;;
20972;SDS011;10645;52.370;13.314;2022-10-17T14:13:50;2.15;;;1.58;;
20972;SDS011;10645;52.370;13.314;2022-10-17T14:16:18;0.98;;;0.98;;
20972;SDS011;10645;52.370;13.314;2022-10-17T14:18:45;1.67;;;1.58;;
20972;SDS011;10645;52.370;13.314;2022-10-17T14:21:20;1.90;;;1.45;;
20972;SDS011;10645;52.370;13.314;2022-10-17T14:23:49;1.58;;;1.15;;
20972;SDS011;10645;52.370;13.314;2022-10-17T14:26:18;1.08;;;1.05;;
20972;SDS011;10645;52.370;13.314;2022-10-17T14:28:47;2.53;;;1.63;;
20972;SDS011;10645;52.370;13.314;2022-10-17T14:31:34;2.83;;;2.00;;
20972;SDS011;10645;52.370;13.314;2022-10-17T14:34:02;1.23;;;1.13;;
20972;SDS011;10645;52.370;13.314;2022-10-17T14:36:38;2.08;;;0.90;;
20972;SDS011;10645;52.370;13.314;2022-10-17T14:39:07;3.45;;;1.48;;
20972;SDS011;10645;52.370;13.314;2022-10-17T14:41:49;1.20;;;1.10;;
20972;SDS011;10645;52.370;13.314;2022-10-17T14:44:23;1.25;;;1.15;;
20972;SDS011;10645;52.370;13.314;2022-10-17T14:46:56;1.70;;;1.60;;
20972;SDS011;10645;52.370;13.314;2022-10-17T14:49:26;1.30;;;1.20;;
20972;SDS011;10645;52.370;13.314;2022-10-17T14:54:42;3.53;;;1.70;;
20972;SDS011;10645;52.370;13.314;2022-10-17T14:57:18;1.10;;;0.82;;
20972;SDS011;10645;52.370;13.314;2022-10-17T14:59:46;1.63;;;1.35;;
20972;SDS011;10645;52.370;13.314;2022-10-17T15:02:13;1.42;;;1.33;;
20972;SDS011;10645;52.370;13.314;2022-10-17T15:04:39;1.25;;;1.15;;
20972;SDS011;10645;52.370;13.314;2022-10-17T15:07:05;1.20;;;0.95;;
20972;SDS011;10645;52.370;13.314;2022-10-17T15:09:32;2.30;;;1.35;;
20972;SDS011;10645;52.370;13.314;2022-10-17T15:12:01;0.75;;;0.73;;
20972;SDS011;10645;52.370;13.314;2022-10-17T15:14:28;0.80;;;0.80;;
20972;SDS011;10645;52.370;13.314;2022-10-17T15:16:54;2.78;;;2.38;;
20972;SDS011;10645;52.370;13.314;2022-10-17T15:19:20;1.05;;;1.05;;
20972;SDS011;10645;52.370;13.314;2022-10-17T15:21:47;2.63;;;1.35;;
20972;SDS011;10645;52.370;13.314;2022-10-17T15:24:13;0.90;;;0.85;;
20972;SDS011;10645;52.370;13.314;2022-10-17T15:26:40;1.08;;;1.05;;
20972;SDS011;10645;52.370;13.314;2022-10-17T15:29:06;2.22;;;1.67;;
20972;SDS011;10645;52.370;13.314;2022-10-17T15:31:32;3.92;;;2.25;;
20972;SDS011;10645;52.370;13.314;2022-10-17T15:33:58;1.73;;;1.35;;
20972;SDS011;10645;52.370;13.314;2022-10-17T15:36:26;2.30;;;1.25;;
20972;SDS011;10645;52.370;13.314;2022-10-17T15:38:59;1.48;;;1.20;;
20972;SDS011;10645;52.370;13.314;2022-10-17T15:41:27;1.50;;;1.33;;
20972;SDS011;10645;52.370;13.314;2022-10-17T15:43:54;1.92;;;0.93;;
20972;SDS011;10645;52.370;13.314;2022-10-17T15:46:21;2.20;;;1.33;;
20972;SDS011;10645;52.370;13.314;2022-10-17T15:48:50;0.95;;;0.82;;
20972;SDS011;10645;52.370;13.314;2022-10-17T15:51:17;8.05;;;1.35;;
20972;SDS011;10645;52.370;13.314;2022-10-17T15:53:44;1.45;;;1.35;;
20972;SDS011;10645;52.370;13.314;2022-10-17T15:56:18;1.55;;;1.05;;
20972;SDS011;10645;52.370;13.314;2022-10-17T15:58:54;1.17;;;1.08;;
20972;SDS011;10645;52.370;13.314;2022-10-17T16:01:21;2.35;;;2.15;;
20972;SDS011;10645;52.370;13.314;2022-10-17T16:03:49;5.47;;;2.53;;
20972;SDS011;10645;52.370;13.314;2022-10-17T16:06:16;3.35;;;2.53;;
20972;SDS011;10645;52.370;13.314;2022-10-17T16:08:43;2.45;;;1.90;;
20972;SDS011;10645;52.370;13.314;2022-10-17T16:11:13;1.40;;;1.27;;
20972;SDS011;10645;52.370;13.314;2022-10-17T16:13:52;3.75;;;1.38;;
20972;SDS011;10645;52.370;13.314;2022-10-17T16:16:21;1.42;;;1.30;;
20972;SDS011;10645;52.370;13.314;2022-10-17T16:18:47;1.25;;;1.15;;
20972;SDS011;10645;52.370;13.314;2022-10-17T16:21:14;1.50;;;0.93;;
20972;SDS011;10645;52.370;13.314;2022-10-17T16:23:41;0.73;;;0.73;;
20972;SDS011;10645;52.370;13.314;2022-10-17T16:26:08;1.08;;;1.00;;
20972;SDS011;10645;52.370;13.314;2022-10-17T16:28:34;1.27;;;1.17;;
20972;SDS011;10645;52.370;13.314;2022-10-17T16:31:00;1.38;;;1.30;;
20972;SDS011;10645;52.370;13.314;2022-10-17T16:33:26;2.70;;;0.80;;